createdAt,value
2022-09-14T00:01:23.603Z,25.60
2022-09-14T00:04:16.460Z,25.20
2022-09-14T00:07:02.252Z,25.40
2022-09-14T00:09:49.081Z,25.50
2022-09-14T00:12:34.393Z,25.50
2022-09-14T00:15:23.818Z,25.50
2022-09-14T00:18:11.025Z,25.50
2022-09-14T00:21:04.824Z,25.40
2022-09-14T00:23:50.487Z,25.50
2022-09-14T00:26:36.146Z,25.40
2022-09-14T00:29:25.011Z,25.30
2022-09-14T00:32:12.092Z,25.30
2022-09-14T00:34:57.857Z,25.40
2022-09-14T00:37:43.563Z,25.30
2022-09-14T00:40:29.410Z,25.30
2022-09-14T00:43:16.021Z,25.20
2022-09-14T00:46:03.975Z,25.30
2022-09-14T00:48:50.088Z,25.30
2022-09-14T00:51:39.263Z,25.30
2022-09-14T00:54:25.254Z,25.30
2022-09-14T00:57:11.740Z,25.30
2022-09-14T00:59:58.229Z,25.30
2022-09-14T01:02:44.372Z,25.20
2022-09-14T01:06:09.082Z,25.10
2022-09-14T01:09:24.424Z,25.00
2022-09-14T01:12:46.730Z,24.30
2022-09-14T01:15:52.204Z,24.20
2022-09-14T01:18:54.009Z,24.20
2022-09-14T01:21:44.919Z,24.40
2022-09-14T01:24:44.661Z,24.60
2022-09-14T01:27:44.055Z,24.70
2022-09-14T01:30:35.036Z,24.60
2022-09-14T01:33:30.965Z,24.70
2022-09-14T01:36:19.207Z,24.70
2022-09-14T01:39:04.633Z,24.70
2022-09-14T01:41:53.134Z,24.50
2022-09-14T01:44:43.287Z,24.50
2022-09-14T01:47:46.944Z,24.60
2022-09-14T01:50:41.520Z,24.60
2022-09-14T01:53:34.690Z,24.70
2022-09-14T01:56:32.059Z,24.70
2022-09-14T01:59:24.488Z,24.60
2022-09-14T02:02:34.483Z,24.50
2022-09-14T02:05:25.264Z,24.40
2022-09-14T02:08:14.694Z,24.30
2022-09-14T02:11:01.187Z,24.00
2022-09-14T02:13:47.132Z,24.10
2022-09-14T02:16:33.679Z,24.20
2022-09-14T02:19:23.674Z,24.20
2022-09-14T02:22:09.630Z,24.20
2022-09-14T02:24:55.934Z,24.10
2022-09-14T02:27:44.265Z,24.00
2022-09-14T02:30:41.991Z,23.90
2022-09-14T02:33:43.661Z,23.90
2022-09-14T02:36:53.328Z,23.90
2022-09-14T02:39:57.921Z,23.90
2022-09-14T02:42:59.678Z,23.80
2022-09-14T02:46:12.539Z,23.70
2022-09-14T02:49:22.824Z,23.60
2022-09-14T02:52:20.126Z,23.40
2022-09-14T02:55:13.942Z,23.50
2022-09-14T02:58:07.260Z,23.60
2022-09-14T03:00:52.958Z,23.50
2022-09-14T03:03:38.880Z,23.50
2022-09-14T03:06:24.775Z,23.40
2022-09-14T03:09:10.683Z,23.30
2022-09-14T03:11:56.385Z,23.10
2022-09-14T03:14:42.117Z,23.10
2022-09-14T03:17:27.428Z,23.10
2022-09-14T03:20:19.612Z,23.10
2022-09-14T03:23:06.055Z,23.10
2022-09-14T03:25:51.449Z,23.00
2022-09-14T03:28:37.725Z,22.90
2022-09-14T03:31:26.498Z,22.90
2022-09-14T03:34:12.281Z,22.90
2022-09-14T03:37:00.676Z,22.80
2022-09-14T03:39:46.152Z,22.70
2022-09-14T03:42:31.749Z,22.60
2022-09-14T03:45:19.993Z,22.50
2022-09-14T03:48:06.245Z,22.40
2022-09-14T03:50:51.866Z,22.40
2022-09-14T03:53:38.529Z,22.40
2022-09-14T03:56:24.509Z,22.40
2022-09-14T03:59:12.654Z,22.50
2022-09-14T04:01:58.178Z,22.50
2022-09-14T04:04:43.976Z,22.50
2022-09-14T04:07:29.460Z,22.60
2022-09-14T04:10:15.208Z,22.60
2022-09-14T04:13:02.019Z,22.70
2022-09-14T04:15:57.321Z,22.60
2022-09-14T04:18:43.466Z,22.40
2022-09-14T04:21:29.242Z,22.60
2022-09-14T04:24:16.337Z,22.20
2022-09-14T04:27:02.868Z,22.30
2022-09-14T04:29:51.652Z,22.40
2022-09-14T04:32:37.282Z,22.50
2022-09-14T04:35:23.236Z,22.60
2022-09-14T04:38:11.709Z,22.60
2022-09-14T04:40:58.475Z,22.70
2022-09-14T04:43:45.805Z,22.70
2022-09-14T04:46:35.141Z,23.00
2022-09-14T04:49:21.833Z,23.00
2022-09-14T04:52:07.544Z,23.00
2022-09-14T04:54:53.300Z,23.00
2022-09-14T04:57:39.250Z,23.10
2022-09-14T05:00:25.641Z,22.90
2022-09-14T05:03:11.732Z,22.80
2022-09-14T05:06:04.108Z,22.80
2022-09-14T05:08:51.088Z,22.80
2022-09-14T05:11:37.708Z,22.80
2022-09-14T05:14:23.296Z,22.90
2022-09-14T05:17:09.166Z,22.60
2022-09-14T05:19:55.789Z,22.40
2022-09-14T05:22:41.112Z,21.60
2022-09-14T05:25:27.636Z,22.60
2022-09-14T05:28:13.370Z,22.70
2022-09-14T05:31:00.175Z,22.70
2022-09-14T05:33:48.349Z,22.90
2022-09-14T05:36:39.299Z,22.90
2022-09-14T05:39:25.487Z,23.00
2022-09-14T05:42:11.403Z,23.00
2022-09-14T05:44:57.250Z,23.20
2022-09-14T05:47:42.835Z,23.30
2022-09-14T05:50:29.863Z,23.30
2022-09-14T05:53:15.702Z,23.40
2022-09-14T05:56:12.220Z,23.40
2022-09-14T05:59:00.468Z,23.30
2022-09-14T06:01:48.621Z,23.30
2022-09-14T06:04:34.922Z,23.30
2022-09-14T06:07:21.429Z,23.20
2022-09-14T06:10:09.800Z,23.30
2022-09-14T06:12:56.432Z,23.30
2022-09-14T06:15:42.321Z,23.40
2022-09-14T06:18:31.362Z,23.50
2022-09-14T06:21:19.909Z,23.60
2022-09-14T06:24:05.467Z,23.60
2022-09-14T06:26:51.147Z,24.10
2022-09-14T06:29:37.554Z,24.10
2022-09-14T06:32:23.355Z,24.30
2022-09-14T06:35:12.390Z,24.60
2022-09-14T06:37:58.203Z,24.70
2022-09-14T06:40:54.546Z,24.80
2022-09-14T06:43:42.031Z,25.00
2022-09-14T06:46:33.473Z,25.30
2022-09-14T06:49:23.081Z,25.40
2022-09-14T06:52:08.701Z,25.40
2022-09-14T06:54:57.446Z,25.70
2022-09-14T06:57:44.080Z,25.70
2022-09-14T07:00:30.127Z,26.00
2022-09-14T07:03:18.848Z,26.20
2022-09-14T07:06:11.047Z,26.20
2022-09-14T07:09:00.898Z,26.10
2022-09-14T07:11:48.174Z,26.40
2022-09-14T07:14:36.543Z,26.40
2022-09-14T07:17:22.771Z,26.50
2022-09-14T07:20:10.177Z,26.70
2022-09-14T07:22:59.160Z,26.80
2022-09-14T07:25:46.867Z,27.20
2022-09-14T07:28:37.790Z,27.50
2022-09-14T07:31:31.828Z,27.60
2022-09-14T07:34:35.636Z,27.70
2022-09-14T07:37:21.654Z,27.90
2022-09-14T07:40:11.422Z,28.10
2022-09-14T07:43:00.266Z,28.20
2022-09-14T07:45:47.471Z,28.10
2022-09-14T07:48:35.059Z,27.80
2022-09-14T07:51:25.989Z,28.20
2022-09-14T07:54:15.841Z,28.50
2022-09-14T07:57:03.338Z,27.50
2022-09-14T07:59:52.870Z,27.70
2022-09-14T08:02:38.995Z,28.10
2022-09-14T08:05:26.212Z,27.90
2022-09-14T08:08:12.705Z,28.30
2022-09-14T08:11:08.594Z,27.90
2022-09-14T08:14:11.556Z,28.20
2022-09-14T08:16:58.110Z,28.00
2022-09-14T08:19:43.704Z,27.90
2022-09-14T08:22:36.227Z,27.70
2022-09-14T08:25:22.327Z,26.90
2022-09-14T08:28:12.105Z,25.90
2022-09-14T08:31:12.303Z,27.40
2022-09-14T08:34:00.278Z,27.30
2022-09-14T08:36:50.836Z,27.50
2022-09-14T08:39:37.904Z,27.50
2022-09-14T08:42:25.635Z,27.50
2022-09-14T08:45:18.375Z,27.50
2022-09-14T08:48:28.508Z,27.30
2022-09-14T08:51:22.826Z,27.30
2022-09-14T08:54:11.179Z,27.10
2022-09-14T08:57:18.788Z,27.10
2022-09-14T09:00:17.737Z,27.10
2022-09-14T09:03:41.352Z,27.80
2022-09-14T09:06:46.201Z,27.80
2022-09-14T09:09:52.683Z,28.00
2022-09-14T09:12:44.087Z,27.90
2022-09-14T09:15:43.379Z,27.80
2022-09-14T09:18:52.164Z,27.40
2022-09-14T09:21:47.716Z,27.30
2022-09-14T09:24:43.637Z,27.20
2022-09-14T09:27:30.751Z,27.10
2022-09-14T09:30:17.633Z,27.30
2022-09-14T09:33:05.504Z,27.60
2022-09-14T09:36:31.129Z,27.50
2022-09-14T09:39:18.351Z,27.70
2022-09-14T09:42:11.770Z,27.70
2022-09-14T09:45:07.571Z,27.60
2022-09-14T09:47:54.448Z,27.80
2022-09-14T09:51:06.370Z,27.90
2022-09-14T09:54:16.596Z,27.40
2022-09-14T09:57:05.799Z,27.40
2022-09-14T09:59:52.182Z,27.70
2022-09-14T10:02:38.782Z,28.20
2022-09-14T10:05:33.488Z,28.60
2022-09-14T10:08:21.267Z,27.70
2022-09-14T10:11:10.299Z,26.70
2022-09-14T10:14:07.536Z,26.60
2022-09-14T10:16:53.425Z,26.10
2022-09-14T10:19:39.486Z,26.00
2022-09-14T10:22:33.385Z,26.30
2022-09-14T10:25:19.970Z,26.40
2022-09-14T10:28:27.511Z,26.90
2022-09-14T10:31:16.340Z,26.30
2022-09-14T10:34:02.835Z,26.20
2022-09-14T10:37:11.326Z,26.30
2022-09-14T10:40:07.274Z,26.30
2022-09-14T10:43:02.567Z,26.30
2022-09-14T10:46:03.750Z,26.30
2022-09-14T10:48:52.040Z,26.20
2022-09-14T10:51:50.156Z,26.40
2022-09-14T10:55:00.939Z,26.70
2022-09-14T10:57:56.111Z,27.00
2022-09-14T11:01:05.612Z,26.80
2022-09-14T11:04:10.535Z,27.00
2022-09-14T11:07:40.269Z,28.10
2022-09-14T11:11:17.381Z,28.40
2022-09-14T11:14:15.210Z,30.00
2022-09-14T11:17:12.852Z,30.50
2022-09-14T11:20:21.430Z,31.40
2022-09-14T11:23:22.514Z,31.40
2022-09-14T11:26:25.799Z,31.50
2022-09-14T11:29:31.754Z,30.80
2022-09-14T11:32:28.657Z,30.30
2022-09-14T11:35:37.158Z,29.70
2022-09-14T11:38:33.696Z,29.90
2022-09-14T11:41:42.861Z,30.80
2022-09-14T11:44:42.677Z,30.30
2022-09-14T11:47:33.344Z,29.50
2022-09-14T11:50:26.484Z,29.30
2022-09-14T11:53:15.531Z,29.20
2022-09-14T11:56:02.779Z,29.50
2022-09-14T11:58:49.565Z,29.90
2022-09-14T12:01:40.149Z,30.00
2022-09-14T12:04:28.247Z,29.90
2022-09-14T12:07:42.425Z,29.80
2022-09-14T12:10:32.556Z,30.30
2022-09-14T12:13:21.394Z,30.50
2022-09-14T12:16:08.925Z,30.20
2022-09-14T12:18:56.922Z,30.50
2022-09-14T12:21:45.149Z,30.90
2022-09-14T12:24:31.807Z,29.60
2022-09-14T12:27:23.010Z,30.10
2022-09-14T12:30:37.096Z,30.70
2022-09-14T12:33:32.735Z,30.50
2022-09-14T12:36:22.971Z,30.10
2022-09-14T12:39:22.371Z,30.10
2022-09-14T12:42:26.383Z,29.40
2022-09-14T12:45:51.197Z,29.00
2022-09-14T12:48:46.261Z,29.10
2022-09-14T12:51:47.036Z,29.00
2022-09-14T12:54:58.178Z,28.90
2022-09-14T12:57:59.721Z,29.20
2022-09-14T13:01:08.643Z,28.80
2022-09-14T13:03:57.050Z,29.20
2022-09-14T13:06:47.943Z,29.30
2022-09-14T13:09:34.691Z,29.50
2022-09-14T13:12:31.764Z,29.40
2022-09-14T13:15:36.855Z,29.30
2022-09-14T13:18:22.881Z,29.60
2022-09-14T13:21:24.924Z,29.60
2022-09-14T13:24:24.424Z,29.10
2022-09-14T13:27:34.880Z,29.40
2022-09-14T13:30:25.290Z,29.80
2022-09-14T13:33:24.160Z,30.30
2022-09-14T13:36:16.136Z,30.40
2022-09-14T13:39:03.547Z,30.40
2022-09-14T13:41:50.283Z,29.80
2022-09-14T13:44:49.746Z,30.00
2022-09-14T13:47:35.809Z,30.40
2022-09-14T13:50:25.471Z,30.30
2022-09-14T13:53:49.055Z,30.70
2022-09-14T13:56:35.539Z,30.60
2022-09-14T13:59:24.397Z,30.40
2022-09-14T14:02:13.966Z,29.00
2022-09-14T14:05:00.439Z,30.30
2022-09-14T14:07:49.449Z,30.20
2022-09-14T14:10:49.075Z,30.80
2022-09-14T14:13:37.633Z,30.80
2022-09-14T14:16:26.619Z,31.10
2022-09-14T14:19:34.857Z,31.40
2022-09-14T14:22:34.145Z,31.00
2022-09-14T14:25:20.452Z,30.80
2022-09-14T14:28:34.568Z,30.50
2022-09-14T14:31:22.390Z,30.80
2022-09-14T14:34:24.359Z,30.20
2022-09-14T14:37:10.974Z,30.20
2022-09-14T14:39:56.855Z,29.90
2022-09-14T14:42:44.684Z,30.00
2022-09-14T14:45:35.919Z,29.40
2022-09-14T14:48:23.554Z,29.70
2022-09-14T14:51:15.321Z,30.00
2022-09-14T14:54:02.007Z,30.40
2022-09-14T14:56:51.221Z,30.20
2022-09-14T14:59:37.269Z,30.00
2022-09-14T15:02:23.072Z,29.90
2022-09-14T15:05:11.067Z,30.00
2022-09-14T15:07:57.580Z,29.70
2022-09-14T15:10:43.157Z,29.70
2022-09-14T15:13:28.759Z,29.40
2022-09-14T15:16:15.451Z,29.10
2022-09-14T15:19:00.850Z,29.20
2022-09-14T15:21:46.542Z,29.00
2022-09-14T15:24:32.360Z,28.40
2022-09-14T15:27:20.905Z,27.50
2022-09-14T15:30:08.750Z,26.90
2022-09-14T15:32:54.933Z,26.40
2022-09-14T15:35:41.034Z,26.10
2022-09-14T15:38:27.195Z,26.00
2022-09-14T15:41:13.458Z,26.10
2022-09-14T15:44:01.074Z,26.30
2022-09-14T15:46:50.060Z,26.50
2022-09-14T15:49:36.038Z,26.70
2022-09-14T15:52:22.832Z,26.90
2022-09-14T15:55:12.101Z,27.10
2022-09-14T15:57:57.615Z,27.30
2022-09-14T16:00:45.146Z,27.10
2022-09-14T16:03:31.934Z,27.10
2022-09-14T16:06:18.094Z,27.30
2022-09-14T16:09:08.923Z,27.40
2022-09-14T16:11:57.293Z,27.20
2022-09-14T16:14:47.199Z,27.00
2022-09-14T16:17:32.984Z,26.90
2022-09-14T16:20:21.500Z,26.90
2022-09-14T16:23:07.651Z,27.10
2022-09-14T16:25:53.556Z,26.90
2022-09-14T16:28:45.549Z,26.60
2022-09-14T16:31:37.037Z,26.80
2022-09-14T16:34:25.668Z,26.60
2022-09-14T16:37:11.341Z,26.70
2022-09-14T16:39:57.781Z,27.00
2022-09-14T16:42:43.936Z,27.10
2022-09-14T16:45:29.455Z,27.30
2022-09-14T16:48:15.224Z,27.40
2022-09-14T16:51:02.316Z,27.50
2022-09-14T16:53:50.218Z,27.60
2022-09-14T16:56:38.598Z,27.70
2022-09-14T16:59:26.214Z,27.80
2022-09-14T17:02:12.080Z,27.90
2022-09-14T17:04:58.245Z,27.70
2022-09-14T17:07:44.569Z,27.30
2022-09-14T17:10:34.449Z,27.70
2022-09-14T17:13:21.172Z,27.30
2022-09-14T17:16:09.963Z,27.30
2022-09-14T17:19:01.285Z,27.10
2022-09-14T17:21:48.264Z,27.10
2022-09-14T17:24:33.911Z,27.40
2022-09-14T17:27:21.187Z,27.80
2022-09-14T17:30:10.443Z,27.50
2022-09-14T17:32:56.458Z,27.20
2022-09-14T17:35:50.405Z,27.30
2022-09-14T17:38:39.283Z,27.40
2022-09-14T17:41:29.460Z,27.70
2022-09-14T17:44:16.287Z,27.60
2022-09-14T17:47:02.174Z,27.70
2022-09-14T17:49:47.650Z,27.10
2022-09-14T17:52:35.534Z,27.20
2022-09-14T17:55:21.580Z,26.70
2022-09-14T17:58:08.417Z,26.70
2022-09-14T18:01:10.580Z,27.10
2022-09-14T18:03:59.316Z,27.30
2022-09-14T18:06:48.152Z,27.30
2022-09-14T18:09:34.175Z,27.40
2022-09-14T18:12:22.020Z,27.50
2022-09-14T18:15:09.753Z,27.70
2022-09-14T18:17:55.914Z,27.80
2022-09-14T18:20:41.716Z,27.70
2022-09-14T18:23:28.405Z,27.60
2022-09-14T18:26:14.052Z,27.40
2022-09-14T18:29:00.614Z,27.30
2022-09-14T18:31:46.241Z,27.70
2022-09-14T18:34:33.137Z,27.70
2022-09-14T18:37:19.411Z,27.80
2022-09-14T18:40:05.347Z,27.80
2022-09-14T18:42:53.223Z,27.70
2022-09-14T18:45:39.249Z,27.60
2022-09-14T18:48:24.915Z,27.40
2022-09-14T18:51:12.183Z,27.20
2022-09-14T18:54:00.107Z,27.10
2022-09-14T18:56:46.605Z,27.10
2022-09-14T18:59:32.423Z,27.10
2022-09-14T19:02:18.457Z,27.10
2022-09-14T19:05:06.477Z,27.20
2022-09-14T19:07:53.397Z,27.10
2022-09-14T19:10:39.844Z,27.10
2022-09-14T19:13:46.992Z,27.10
2022-09-14T19:16:50.903Z,27.10
2022-09-14T19:19:37.619Z,26.90
2022-09-14T19:22:23.483Z,26.90
2022-09-14T19:25:09.322Z,26.80
2022-09-14T19:27:56.095Z,26.70
2022-09-14T19:30:42.368Z,26.90
2022-09-14T19:33:30.492Z,26.90
2022-09-14T19:36:22.568Z,26.90
2022-09-14T19:39:09.173Z,26.80
2022-09-14T19:41:55.067Z,26.90
2022-09-14T19:44:40.840Z,26.80
2022-09-14T19:47:26.575Z,26.80
2022-09-14T19:50:12.436Z,26.80
2022-09-14T19:53:02.538Z,26.80
2022-09-14T19:55:50.598Z,26.80
2022-09-14T19:58:41.383Z,26.90
2022-09-14T20:01:30.338Z,27.10
2022-09-14T20:04:18.377Z,27.00
2022-09-14T20:07:04.450Z,26.60
2022-09-14T20:09:51.430Z,26.90
2022-09-14T20:12:37.797Z,27.10
2022-09-14T20:15:24.741Z,26.80
2022-09-14T20:18:11.614Z,26.60
2022-09-14T20:20:57.814Z,26.90
2022-09-14T20:24:04.333Z,26.30
2022-09-14T20:26:51.685Z,26.30
2022-09-14T20:29:37.321Z,26.60
2022-09-14T20:32:25.142Z,26.80
2022-09-14T20:35:11.017Z,26.90
2022-09-14T20:37:56.876Z,26.70
2022-09-14T20:40:45.150Z,26.80
2022-09-14T20:43:32.674Z,26.90
2022-09-14T20:46:25.317Z,26.50
2022-09-14T20:49:13.844Z,26.40
2022-09-14T20:52:02.484Z,26.40
2022-09-14T20:54:48.090Z,26.40
2022-09-14T20:57:34.021Z,26.20
2022-09-14T21:00:20.949Z,26.20
2022-09-14T21:03:08.148Z,26.40
2022-09-14T21:05:55.949Z,26.70
2022-09-14T21:08:42.302Z,26.90
2022-09-14T21:11:29.591Z,27.00
2022-09-14T21:14:17.928Z,27.30
2022-09-14T21:17:06.437Z,27.30
2022-09-14T21:19:53.442Z,27.30
2022-09-14T21:22:40.312Z,27.30
2022-09-14T21:25:25.743Z,27.30
2022-09-14T21:28:11.645Z,27.30
2022-09-14T21:31:16.190Z,27.30
2022-09-14T21:34:03.238Z,26.90
2022-09-14T21:36:51.289Z,26.80
2022-09-14T21:39:40.684Z,26.30
2022-09-14T21:42:26.437Z,26.10
2022-09-14T21:45:13.107Z,26.20
2022-09-14T21:47:59.131Z,26.20
2022-09-14T21:50:47.550Z,26.40
2022-09-14T21:53:34.412Z,26.50
2022-09-14T21:56:23.426Z,26.90
2022-09-14T21:59:19.670Z,26.90
2022-09-14T22:02:06.892Z,27.10
2022-09-14T22:04:54.282Z,27.10
2022-09-14T22:07:45.036Z,26.60
2022-09-14T22:10:33.649Z,26.50
2022-09-14T22:13:19.458Z,26.00
2022-09-14T22:16:13.913Z,26.00
2022-09-14T22:19:03.784Z,26.30
2022-09-14T22:21:49.595Z,26.50
2022-09-14T22:24:38.298Z,26.60
2022-09-14T22:27:24.893Z,26.80
2022-09-14T22:30:11.124Z,26.80
2022-09-14T22:32:57.204Z,26.80
2022-09-14T22:35:54.829Z,27.00
2022-09-14T22:38:41.547Z,26.90
2022-09-14T22:41:31.250Z,26.50
2022-09-14T22:44:17.318Z,26.10
2022-09-14T22:47:04.096Z,26.50
2022-09-14T22:49:49.961Z,26.40
2022-09-14T22:52:36.258Z,26.50
2022-09-14T22:55:21.811Z,26.50
2022-09-14T22:58:07.936Z,26.10
2022-09-14T23:00:54.794Z,26.00
2022-09-14T23:03:40.787Z,26.10
2022-09-14T23:06:28.846Z,26.30
2022-09-14T23:09:20.765Z,26.00
2022-09-14T23:12:06.732Z,26.20
2022-09-14T23:14:53.544Z,26.10
2022-09-14T23:17:40.309Z,26.30
2022-09-14T23:20:25.885Z,26.00
2022-09-14T23:23:12.181Z,25.90
2022-09-14T23:26:03.079Z,26.30
2022-09-14T23:29:08.871Z,25.90
2022-09-14T23:31:54.484Z,26.10
2022-09-14T23:34:40.159Z,25.90
2022-09-14T23:37:25.729Z,25.80
2022-09-14T23:40:12.196Z,25.50
2022-09-14T23:42:58.134Z,25.60
2022-09-14T23:45:47.973Z,25.90
2022-09-14T23:48:33.645Z,26.10
2022-09-14T23:51:23.108Z,25.90
2022-09-14T23:54:10.721Z,26.00
2022-09-14T23:56:56.537Z,25.80
2022-09-14T23:59:42.693Z,26.00
